Time;durP1;ratioP1;P1;durP2;ratioP2;P2;SDS_P1;SDS_P2;PMS_P1;PMS_P2;Temp;Humidity;BMP_temperature;BMP_pressure;BME280_temperature;BME280_humidity;BME280_pressure;Samples;Min_cycle;Max_cycle;Signal;HPM_P1;HPM_P2
2021/07/17 00:01:38;;;;;;;10.70;8.05;;;;;;;;;;4994970;28;20271;-90
2021/07/17 00:04:21;;;;;;;10.07;7.18;;;;;;;;;;4994768;28;20720;-91
2021/07/17 00:07:44;;;;;;;10.43;8.25;;;;;;;;;;4995400;28;20184;-90
2021/07/17 00:10:39;;;;;;;9.82;7.55;;;;;;;;;;4994676;28;20176;-91
2021/07/17 00:13:13;;;;;;;12.40;8.13;;;;;;;;;;4994389;28;20291;-92
2021/07/17 00:15:40;;;;;;;17.17;8.30;;;;;;;;;;4997929;28;20277;-90
2021/07/17 00:18:09;;;;;;;10.27;8.05;;;;;;;;;;5002750;28;20198;-89
2021/07/17 00:20:37;;;;;;;13.30;8.13;;;;;;;;;;5002517;28;20286;-90
2021/07/17 00:23:05;;;;;;;11.13;8.52;;;;;;;;;;5002315;28;20263;-90
2021/07/17 00:25:33;;;;;;;12.77;8.25;;;;;;;;;;4998335;28;20211;-89
2021/07/17 00:28:07;;;;;;;14.95;9.25;;;;;;;;;;4994587;28;20284;-90
2021/07/17 00:30:58;;;;;;;10.45;8.02;;;;;;;;;;4994698;28;20192;-90
2021/07/17 00:33:34;;;;;;;13.07;7.85;;;;;;;;;;4993850;28;20612;-90
2021/07/17 00:36:23;;;;;;;10.82;8.73;;;;;;;;;;4993965;28;20291;-90
2021/07/17 00:39:21;;;;;;;12.27;8.43;;;;;;;;;;4994036;28;20251;-89
2021/07/17 00:41:48;;;;;;;13.55;8.10;;;;;;;;;;4993799;28;20551;-90
2021/07/17 00:44:26;;;;;;;14.52;9.13;;;;;;;;;;4992191;28;20723;-89
2021/07/17 00:47:16;;;;;;;12.75;8.27;;;;;;;;;;4974629;28;20188;-90
2021/07/17 00:49:45;;;;;;;15.73;8.13;;;;;;;;;;4974270;28;20663;-89
2021/07/17 00:52:12;;;;;;;11.45;9.07;;;;;;;;;;4974251;28;20208;-90
2021/07/17 00:54:42;;;;;;;9.88;7.00;;;;;;;;;;4974061;28;20311;-90
2021/07/17 00:57:11;;;;;;;11.15;8.35;;;;;;;;;;4975417;28;20192;-90
2021/07/17 00:59:49;;;;;;;14.07;8.32;;;;;;;;;;4973803;28;20192;-89
2021/07/17 01:02:19;;;;;;;15.48;9.98;;;;;;;;;;4974174;28;20611;-90
2021/07/17 01:05:09;;;;;;;14.75;10.10;;;;;;;;;;4973977;28;20228;-89
2021/07/17 01:07:53;;;;;;;10.50;7.43;;;;;;;;;;4973679;28;20674;-89
2021/07/17 01:10:23;;;;;;;13.80;9.27;;;;;;;;;;4973960;28;20204;-89
2021/07/17 01:12:58;;;;;;;18.45;9.68;;;;;;;;;;4974608;28;20200;-89
2021/07/17 01:15:38;;;;;;;12.02;7.78;;;;;;;;;;4974805;28;20228;-89
2021/07/17 01:21:48;;;;;;;11.00;8.23;;;;;;;;;;4974212;28;20199;-89
2021/07/17 01:24:41;;;;;;;11.50;8.65;;;;;;;;;;4973840;28;20601;-90
2021/07/17 01:27:21;;;;;;;11.30;8.15;;;;;;;;;;4973951;28;20750;-89
2021/07/17 01:30:08;;;;;;;10.27;7.65;;;;;;;;;;4973968;28;20639;-90
2021/07/17 01:32:35;;;;;;;12.00;8.77;;;;;;;;;;4973889;28;20185;-89
2021/07/17 01:35:16;;;;;;;12.93;8.45;;;;;;;;;;4973459;28;20227;-90
2021/07/17 01:38:04;;;;;;;13.77;8.90;;;;;;;;;;4973335;28;20200;-90
2021/07/17 01:40:54;;;;;;;14.35;10.25;;;;;;;;;;4973477;28;20883;-90
2021/07/17 01:44:09;;;;;;;9.55;7.63;;;;;;;;;;4973356;28;20231;-90
2021/07/17 01:47:12;;;;;;;11.50;9.00;;;;;;;;;;4973810;28;20236;-89
2021/07/17 01:49:55;;;;;;;11.82;8.65;;;;;;;;;;4974154;28;20642;-89
2021/07/17 01:52:41;;;;;;;12.55;7.95;;;;;;;;;;4973588;28;20558;-90
2021/07/17 01:55:12;;;;;;;18.27;8.95;;;;;;;;;;4972772;28;20302;-90
2021/07/17 01:58:23;;;;;;;18.40;10.13;;;;;;;;;;4972822;28;20208;-89
2021/07/17 02:02:03;;;;;;;13.02;8.00;;;;;;;;;;4973418;28;20635;-90
2021/07/17 02:04:37;;;;;;;13.82;7.55;;;;;;;;;;4972790;28;20235;-90
2021/07/17 02:07:11;;;;;;;11.05;7.93;;;;;;;;;;4973795;28;20215;-89
2021/07/17 02:09:42;;;;;;;17.17;9.30;;;;;;;;;;4973401;28;20765;-90
2021/07/17 02:12:25;;;;;;;9.63;8.45;;;;;;;;;;4973420;28;20264;-89
2021/07/17 02:15:08;;;;;;;13.40;8.27;;;;;;;;;;4972916;28;20230;-89
2021/07/17 02:17:36;;;;;;;14.05;9.23;;;;;;;;;;4973745;28;20230;-90
2021/07/17 02:20:07;;;;;;;19.20;9.88;;;;;;;;;;4973586;28;20187;-89
2021/07/17 02:22:41;;;;;;;9.40;8.15;;;;;;;;;;4973605;28;20185;-91
2021/07/17 02:25:11;;;;;;;10.25;8.02;;;;;;;;;;4973596;28;20632;-89
2021/07/17 02:28:14;;;;;;;11.18;8.05;;;;;;;;;;4973285;28;20746;-90
2021/07/17 02:31:28;;;;;;;14.00;8.25;;;;;;;;;;4972988;28;20204;-89
2021/07/17 02:34:40;;;;;;;13.48;8.65;;;;;;;;;;4973435;28;20706;-90
2021/07/17 02:38:18;;;;;;;14.60;8.70;;;;;;;;;;4973885;28;20184;-90
2021/07/17 02:40:54;;;;;;;12.75;8.20;;;;;;;;;;4973715;28;20578;-90
2021/07/17 02:43:23;;;;;;;13.35;9.70;;;;;;;;;;4974231;28;20196;-90
2021/07/17 02:49:31;;;;;;;10.65;8.75;;;;;;;;;;4973736;28;20243;-89
2021/07/17 02:52:54;;;;;;;13.63;10.07;;;;;;;;;;4972851;28;20222;-91
2021/07/17 02:55:27;;;;;;;11.43;8.43;;;;;;;;;;4973214;28;20224;-90
2021/07/17 02:58:03;;;;;;;14.55;9.35;;;;;;;;;;4973896;28;20550;-90
2021/07/17 03:00:47;;;;;;;13.00;8.85;;;;;;;;;;4973748;28;20267;-90
2021/07/17 03:03:15;;;;;;;10.18;8.98;;;;;;;;;;4973696;28;20200;-90
2021/07/17 03:05:44;;;;;;;15.45;10.77;;;;;;;;;;4973623;28;20694;-90
2021/07/17 03:09:22;;;;;;;12.20;8.90;;;;;;;;;;4974072;28;20201;-90
2021/07/17 03:12:08;;;;;;;12.98;8.63;;;;;;;;;;4973789;28;20219;-90
2021/07/17 03:18:18;;;;;;;13.02;9.27;;;;;;;;;;4973777;28;20195;-90
2021/07/17 03:21:51;;;;;;;13.23;9.15;;;;;;;;;;4973717;28;20566;-89
2021/07/17 03:28:00;;;;;;;16.73;8.80;;;;;;;;;;4976869;28;20196;-90
2021/07/17 03:31:33;;;;;;;15.52;9.70;;;;;;;;;;4976775;28;20196;-89
2021/07/17 03:34:28;;;;;;;10.45;9.32;;;;;;;;;;4976679;28;20244;-90
2021/07/17 03:37:59;;;;;;;17.58;9.77;;;;;;;;;;4976826;28;20196;-91
2021/07/17 03:40:53;;;;;;;14.23;10.75;;;;;;;;;;4976784;28;20204;-90
2021/07/17 03:43:54;;;;;;;13.77;10.60;;;;;;;;;;4976737;28;20193;-89
2021/07/17 03:47:29;;;;;;;12.90;9.57;;;;;;;;;;4976229;28;20622;-89
2021/07/17 03:50:16;;;;;;;12.68;8.95;;;;;;;;;;4976485;28;20267;-89
2021/07/17 03:52:44;;;;;;;17.55;9.70;;;;;;;;;;4976249;28;20746;-90
2021/07/17 03:55:22;;;;;;;14.45;9.82;;;;;;;;;;4976154;28;20228;-90
2021/07/17 03:57:59;;;;;;;20.35;9.95;;;;;;;;;;4976483;28;20193;-90
2021/07/17 04:00:29;;;;;;;13.05;9.57;;;;;;;;;;4984085;28;20180;-89
2021/07/17 04:03:09;;;;;;;15.90;10.40;;;;;;;;;;4984999;28;20181;-89
2021/07/17 04:06:02;;;;;;;15.23;9.95;;;;;;;;;;4976306;28;20631;-89
2021/07/17 04:08:49;;;;;;;13.32;8.10;;;;;;;;;;4976265;28;20242;-89
2021/07/17 04:11:25;;;;;;;10.32;8.95;;;;;;;;;;4976101;28;20188;-89
2021/07/17 04:15:06;;;;;;;16.48;9.60;;;;;;;;;;4976033;28;20216;-89
2021/07/17 04:17:44;;;;;;;13.32;8.82;;;;;;;;;;4975841;28;20185;-89
2021/07/17 04:21:16;;;;;;;15.02;9.10;;;;;;;;;;4975940;28;20186;-89
2021/07/17 04:24:13;;;;;;;16.40;9.27;;;;;;;;;;4975893;28;20706;-89
2021/07/17 04:26:42;;;;;;;12.45;8.55;;;;;;;;;;4975898;28;20204;-89
2021/07/17 04:29:36;;;;;;;13.75;9.80;;;;;;;;;;4975839;28;20185;-90
2021/07/17 04:32:11;;;;;;;13.70;9.70;;;;;;;;;;4975564;28;20177;-89
2021/07/17 04:34:57;;;;;;;10.57;8.63;;;;;;;;;;4975628;28;20231;-89
2021/07/17 04:37:34;;;;;;;10.75;8.68;;;;;;;;;;4976066;28;20193;-89
2021/07/17 04:40:23;;;;;;;12.23;8.85;;;;;;;;;;4975801;28;20205;-89
2021/07/17 04:43:23;;;;;;;10.00;8.90;;;;;;;;;;4975823;28;20199;-89
2021/07/17 04:46:13;;;;;;;14.02;8.85;;;;;;;;;;4975559;28;20232;-89
2021/07/17 04:49:25;;;;;;;11.60;7.82;;;;;;;;;;4975538;28;20208;-89
2021/07/17 04:52:50;;;;;;;11.80;7.75;;;;;;;;;;4975633;28;20192;-88
2021/07/17 04:55:32;;;;;;;14.40;9.25;;;;;;;;;;4975346;28;20229;-88
2021/07/17 04:58:24;;;;;;;9.25;7.80;;;;;;;;;;4976089;28;20193;-89
2021/07/17 05:01:02;;;;;;;11.48;7.68;;;;;;;;;;4976429;28;20201;-89
2021/07/17 05:03:31;;;;;;;11.18;7.95;;;;;;;;;;4976464;28;20193;-88
2021/07/17 05:06:12;;;;;;;10.40;7.78;;;;;;;;;;4976312;28;20276;-89
2021/07/17 05:08:41;;;;;;;9.85;7.40;;;;;;;;;;4975154;28;20199;-89
2021/07/17 05:11:24;;;;;;;11.15;7.88;;;;;;;;;;4973610;28;20209;-88
2021/07/17 05:13:56;;;;;;;10.82;7.68;;;;;;;;;;4974820;28;20310;-89
2021/07/17 05:16:52;;;;;;;13.18;8.18;;;;;;;;;;4975042;28;20208;-88
2021/07/17 05:23:05;;;;;;;12.80;8.30;;;;;;;;;;4974942;28;20191;-88
2021/07/17 05:25:59;;;;;;;13.75;8.70;;;;;;;;;;4974911;28;20251;-88
2021/07/17 05:28:40;;;;;;;9.82;7.55;;;;;;;;;;4974628;28;20181;-88
2021/07/17 05:31:14;;;;;;;10.52;8.02;;;;;;;;;;4974804;28;20197;-87
2021/07/17 05:33:52;;;;;;;13.05;8.27;;;;;;;;;;4974903;28;20198;-88
2021/07/17 05:36:40;;;;;;;17.67;9.65;;;;;;;;;;4975134;28;20221;-87
2021/07/17 05:39:07;;;;;;;14.48;8.88;;;;;;;;;;4976914;28;20185;-87
2021/07/17 05:41:42;;;;;;;13.18;9.25;;;;;;;;;;4976774;28;20189;-86
2021/07/17 05:44:10;;;;;;;9.23;8.23;;;;;;;;;;4998200;23;20227;-89
2021/07/17 05:46:38;;;;;;;10.38;7.38;;;;;;;;;;4971878;28;20211;-89
2021/07/17 05:49:05;;;;;;;12.32;8.63;;;;;;;;;;4971665;28;20568;-91
2021/07/17 05:51:33;;;;;;;11.40;8.30;;;;;;;;;;4971764;28;20189;-89
2021/07/17 05:54:00;;;;;;;14.15;9.05;;;;;;;;;;4971518;28;20225;-89
2021/07/17 05:56:28;;;;;;;12.90;7.57;;;;;;;;;;4971563;28;20224;-90
2021/07/17 05:58:55;;;;;;;14.68;7.30;;;;;;;;;;4971343;28;20192;-88
2021/07/17 06:01:25;;;;;;;11.93;8.65;;;;;;;;;;4971556;28;20245;-88
2021/07/17 06:03:52;;;;;;;16.27;9.45;;;;;;;;;;4970912;28;20662;-88
2021/07/17 06:06:20;;;;;;;12.15;9.02;;;;;;;;;;4971340;28;20187;-89
2021/07/17 06:08:47;;;;;;;15.90;8.35;;;;;;;;;;4971300;28;20658;-89
2021/07/17 06:11:15;;;;;;;12.35;9.77;;;;;;;;;;4971589;28;20188;-88
2021/07/17 06:13:42;;;;;;;10.75;7.82;;;;;;;;;;4970959;28;20203;-90
2021/07/17 06:16:10;;;;;;;11.88;7.53;;;;;;;;;;4971883;28;20204;-90
2021/07/17 06:18:38;;;;;;;13.98;8.60;;;;;;;;;;4971844;28;20571;-89
2021/07/17 06:21:06;;;;;;;12.82;7.80;;;;;;;;;;4971282;28;20215;-90
2021/07/17 06:23:33;;;;;;;8.23;7.03;;;;;;;;;;4970736;28;20204;-90
2021/07/17 06:26:01;;;;;;;16.17;7.78;;;;;;;;;;4970934;28;20225;-88
2021/07/17 06:28:29;;;;;;;9.13;7.25;;;;;;;;;;4970981;28;20219;-90
2021/07/17 06:30:56;;;;;;;9.50;8.23;;;;;;;;;;4970712;28;20204;-90
2021/07/17 06:33:24;;;;;;;8.02;6.60;;;;;;;;;;4970915;28;20191;-89
2021/07/17 06:35:52;;;;;;;14.68;8.73;;;;;;;;;;4970233;28;20225;-87
2021/07/17 06:38:20;;;;;;;10.85;8.38;;;;;;;;;;4971000;28;20578;-90
2021/07/17 06:40:48;;;;;;;15.30;8.68;;;;;;;;;;4969220;28;20581;-89
2021/07/17 06:43:16;;;;;;;11.98;8.00;;;;;;;;;;4972497;28;20195;-88
2021/07/17 06:45:43;;;;;;;13.20;7.38;;;;;;;;;;4972534;28;20247;-89
2021/07/17 06:48:12;;;;;;;11.32;7.50;;;;;;;;;;4973290;28;20189;-90
2021/07/17 06:50:39;;;;;;;13.23;7.50;;;;;;;;;;4972005;28;20193;-92
2021/07/17 06:53:08;;;;;;;14.55;7.68;;;;;;;;;;4970624;28;20220;-89
2021/07/17 06:55:36;;;;;;;9.45;6.78;;;;;;;;;;4970414;28;20320;-89
2021/07/17 06:58:04;;;;;;;11.70;8.70;;;;;;;;;;4974748;28;20232;-91
2021/07/17 07:00:34;;;;;;;10.00;8.15;;;;;;;;;;4974986;28;20251;-91
2021/07/17 07:03:01;;;;;;;10.40;6.72;;;;;;;;;;4975118;28;20737;-89
2021/07/17 07:05:28;;;;;;;14.98;7.50;;;;;;;;;;4975536;28;20232;-91
2021/07/17 07:07:56;;;;;;;15.10;7.45;;;;;;;;;;4975128;28;20740;-90
2021/07/17 07:10:25;;;;;;;9.65;7.82;;;;;;;;;;4975145;28;20287;-91
2021/07/17 07:12:53;;;;;;;9.38;7.82;;;;;;;;;;4975750;28;20192;-89
2021/07/17 07:15:21;;;;;;;10.95;8.57;;;;;;;;;;4977148;28;20283;-92
2021/07/17 07:17:49;;;;;;;11.57;8.02;;;;;;;;;;4976421;28;20209;-92
2021/07/17 07:20:17;;;;;;;13.18;6.93;;;;;;;;;;4976651;28;20204;-89
2021/07/17 07:22:44;;;;;;;10.02;6.90;;;;;;;;;;4976254;28;20204;-90
2021/07/17 07:25:13;;;;;;;7.70;5.68;;;;;;;;;;4976197;28;20657;-91
2021/07/17 07:27:42;;;;;;;16.58;9.32;;;;;;;;;;4976042;28;20196;-90
2021/07/17 07:30:10;;;;;;;9.30;6.90;;;;;;;;;;4975366;28;20200;-89
2021/07/17 07:32:37;;;;;;;9.88;7.10;;;;;;;;;;4975308;28;20209;-89
2021/07/17 07:35:06;;;;;;;8.15;6.70;;;;;;;;;;4975512;28;20235;-88
2021/07/17 07:37:33;;;;;;;11.85;7.90;;;;;;;;;;4976025;28;20220;-88
2021/07/17 07:40:01;;;;;;;13.77;8.75;;;;;;;;;;4975699;28;20268;-88
2021/07/17 07:42:29;;;;;;;9.35;7.10;;;;;;;;;;4975700;28;20205;-88
2021/07/17 07:44:58;;;;;;;9.57;6.88;;;;;;;;;;4974805;28;20240;-88
2021/07/17 07:47:25;;;;;;;8.20;6.88;;;;;;;;;;4974638;28;20211;-87
2021/07/17 07:49:57;;;;;;;7.32;6.60;;;;;;;;;;4974859;28;20568;-88
2021/07/17 07:52:25;;;;;;;8.93;6.97;;;;;;;;;;4974765;28;20300;-90
2021/07/17 07:54:55;;;;;;;9.95;7.20;;;;;;;;;;4974133;28;20224;-90
2021/07/17 07:57:23;;;;;;;6.93;6.22;;;;;;;;;;4974484;28;20702;-90
2021/07/17 07:59:51;;;;;;;11.27;7.90;;;;;;;;;;4974262;28;20215;-89
2021/07/17 08:02:20;;;;;;;9.43;7.25;;;;;;;;;;4974695;28;20197;-89
2021/07/17 08:04:47;;;;;;;9.43;6.80;;;;;;;;;;4975454;28;20250;-88
2021/07/17 08:07:15;;;;;;;11.00;7.57;;;;;;;;;;4975748;28;20555;-88
2021/07/17 08:09:42;;;;;;;9.80;7.25;;;;;;;;;;4974819;28;20635;-89
2021/07/17 08:12:09;;;;;;;9.75;8.13;;;;;;;;;;4974958;28;20255;-87
2021/07/17 08:14:38;;;;;;;10.30;7.35;;;;;;;;;;4975476;28;20212;-89
2021/07/17 08:17:08;;;;;;;10.90;7.50;;;;;;;;;;4974550;28;20675;-87
2021/07/17 08:19:38;;;;;;;10.13;6.25;;;;;;;;;;4975516;28;20627;-89
2021/07/17 08:22:07;;;;;;;9.73;7.35;;;;;;;;;;4975427;28;20184;-89
2021/07/17 08:24:35;;;;;;;12.45;8.10;;;;;;;;;;4975377;28;20252;-89
2021/07/17 08:27:05;;;;;;;7.97;7.18;;;;;;;;;;4975311;28;20199;-88
2021/07/17 08:29:33;;;;;;;10.98;7.40;;;;;;;;;;4975413;28;20185;-90
2021/07/17 08:32:01;;;;;;;10.57;7.80;;;;;;;;;;4975183;28;20203;-90
2021/07/17 08:34:28;;;;;;;13.07;8.52;;;;;;;;;;4972928;28;20703;-90
2021/07/17 08:36:57;;;;;;;15.55;10.07;;;;;;;;;;4972633;28;20223;-89
2021/07/17 08:39:25;;;;;;;10.25;8.35;;;;;;;;;;4972786;28;20223;-89
2021/07/17 08:41:52;;;;;;;12.93;9.63;;;;;;;;;;4972381;28;20585;-90
2021/07/17 08:44:20;;;;;;;10.40;9.13;;;;;;;;;;4977458;28;20244;-89
2021/07/17 08:46:48;;;;;;;10.10;8.80;;;;;;;;;;4991585;28;20291;-90
2021/07/17 08:49:16;;;;;;;10.13;9.07;;;;;;;;;;4991734;28;20204;-90
2021/07/17 08:51:47;;;;;;;7.32;6.53;;;;;;;;;;4978255;28;20208;-90
2021/07/17 08:54:18;;;;;;;10.68;7.70;;;;;;;;;;4972044;28;20261;-90
2021/07/17 08:56:49;;;;;;;10.68;8.90;;;;;;;;;;4971871;28;20238;-90
2021/07/17 08:59:17;;;;;;;9.80;8.80;;;;;;;;;;4971762;28;20239;-90
2021/07/17 09:01:44;;;;;;;11.63;8.75;;;;;;;;;;4984803;28;20204;-90
2021/07/17 09:04:12;;;;;;;11.07;8.57;;;;;;;;;;4991202;28;20220;-91
2021/07/17 09:06:39;;;;;;;15.40;9.45;;;;;;;;;;4991269;28;20204;-89
2021/07/17 09:09:07;;;;;;;11.93;9.07;;;;;;;;;;4991410;28;20200;-90
2021/07/17 09:11:39;;;;;;;15.10;10.82;;;;;;;;;;4991123;28;20595;-91
2021/07/17 09:14:07;;;;;;;9.30;7.90;;;;;;;;;;4991223;28;20223;-88
2021/07/17 09:16:37;;;;;;;9.30;8.38;;;;;;;;;;4990756;28;20208;-89
2021/07/17 09:19:06;;;;;;;12.80;9.50;;;;;;;;;;4990673;28;20259;-91
2021/07/17 09:21:37;;;;;;;10.85;7.75;;;;;;;;;;4978616;28;20247;-90
2021/07/17 09:24:07;;;;;;;10.80;8.00;;;;;;;;;;4971641;28;20286;-90
2021/07/17 09:26:38;;;;;;;14.18;8.60;;;;;;;;;;4971624;28;20212;-90
2021/07/17 09:29:07;;;;;;;10.30;8.38;;;;;;;;;;4971783;28;20212;-90
2021/07/17 09:31:37;;;;;;;11.02;8.40;;;;;;;;;;4971356;28;20688;-89
2021/07/17 09:34:08;;;;;;;13.93;9.18;;;;;;;;;;4971029;28;20220;-89
2021/07/17 09:36:50;;;;;;;11.45;7.95;;;;;;;;;;4971552;28;20235;-90
2021/07/17 09:39:18;;;;;;;9.38;7.57;;;;;;;;;;4971478;28;20242;-90
2021/07/17 09:41:56;;;;;;;10.77;9.70;;;;;;;;;;4984575;28;20314;-89
2021/07/17 09:44:24;;;;;;;13.32;9.20;;;;;;;;;;4990097;28;20227;-90
2021/07/17 09:46:52;;;;;;;10.77;8.32;;;;;;;;;;4990427;28;20204;-89
2021/07/17 09:49:22;;;;;;;10.75;9.60;;;;;;;;;;4990889;28;20306;-89
2021/07/17 09:51:50;;;;;;;13.88;9.20;;;;;;;;;;4991562;28;20207;-90
2021/07/17 09:54:19;;;;;;;12.57;9.23;;;;;;;;;;4991699;28;20231;-90
2021/07/17 09:56:47;;;;;;;11.15;8.88;;;;;;;;;;4990966;28;20331;-91
2021/07/17 09:59:17;;;;;;;11.68;9.25;;;;;;;;;;4991451;28;20330;-90
2021/07/17 10:01:45;;;;;;;10.15;8.57;;;;;;;;;;4978139;28;20208;-91
2021/07/17 10:04:15;;;;;;;10.60;8.82;;;;;;;;;;4972422;28;20228;-91
2021/07/17 10:06:46;;;;;;;9.00;7.57;;;;;;;;;;4971602;28;20665;-89
2021/07/17 10:09:29;;;;;;;12.15;8.98;;;;;;;;;;4971715;28;20208;-90
2021/07/17 10:12:03;;;;;;;12.52;8.02;;;;;;;;;;4985414;28;20704;-89
2021/07/17 10:14:35;;;;;;;13.00;8.13;;;;;;;;;;4990254;28;20258;-88
2021/07/17 10:17:10;;;;;;;15.40;9.85;;;;;;;;;;4990426;28;20626;-89
2021/07/17 10:19:39;;;;;;;14.13;9.80;;;;;;;;;;4990922;28;20672;-90
2021/07/17 10:22:08;;;;;;;12.80;9.75;;;;;;;;;;4989736;28;20207;-89
2021/07/17 10:24:36;;;;;;;11.68;9.00;;;;;;;;;;4990073;28;20231;-88
2021/07/17 10:27:05;;;;;;;10.48;8.73;;;;;;;;;;4990174;28;20211;-89
2021/07/17 10:29:34;;;;;;;11.02;8.75;;;;;;;;;;4990563;28;20200;-88
2021/07/17 10:32:01;;;;;;;11.85;10.25;;;;;;;;;;4976885;28;20205;-89
2021/07/17 10:34:29;;;;;;;10.95;8.45;;;;;;;;;;4974819;28;20232;-89
2021/07/17 10:37:03;;;;;;;9.77;8.77;;;;;;;;;;4976781;28;20200;-90
2021/07/17 10:39:34;;;;;;;9.80;8.02;;;;;;;;;;4979173;28;20220;-90
2021/07/17 10:42:10;;;;;;;13.75;9.90;;;;;;;;;;4992286;28;20210;-90
2021/07/17 10:44:45;;;;;;;10.48;8.30;;;;;;;;;;4995089;28;20235;-89
2021/07/17 10:47:14;;;;;;;10.32;8.07;;;;;;;;;;4994569;28;20230;-89
2021/07/17 10:49:46;;;;;;;11.75;9.20;;;;;;;;;;4994108;28;20204;-90
2021/07/17 10:52:13;;;;;;;9.85;8.85;;;;;;;;;;4976287;28;20204;-89
2021/07/17 10:54:42;;;;;;;11.05;8.50;;;;;;;;;;4974325;28;20335;-89
2021/07/17 10:57:09;;;;;;;10.00;7.80;;;;;;;;;;4974055;28;20200;-90
2021/07/17 10:59:48;;;;;;;9.98;7.72;;;;;;;;;;4974436;28;20223;-89
2021/07/17 11:02:24;;;;;;;14.45;9.40;;;;;;;;;;4991233;28;20219;-88
2021/07/17 11:05:00;;;;;;;11.60;9.40;;;;;;;;;;4993214;28;20229;-88
2021/07/17 11:07:37;;;;;;;10.63;9.30;;;;;;;;;;4992973;28;20200;-89
2021/07/17 11:10:14;;;;;;;11.20;8.82;;;;;;;;;;4992726;28;20208;-88
2021/07/17 11:13:00;;;;;;;10.82;8.18;;;;;;;;;;4972305;28;20561;-89
2021/07/17 11:15:48;;;;;;;10.40;9.30;;;;;;;;;;4976011;28;20212;-89
2021/07/17 11:18:40;;;;;;;13.27;7.63;;;;;;;;;;4976160;28;20416;-88
2021/07/17 11:21:10;;;;;;;10.00;7.40;;;;;;;;;;4978397;28;20200;-89
2021/07/17 11:23:47;;;;;;;10.50;8.02;;;;;;;;;;4976210;28;20188;-89
2021/07/17 11:26:22;;;;;;;11.40;7.47;;;;;;;;;;4956808;29;20189;-89
2021/07/17 11:31:52;;;;;;;8.45;7.63;;;;;;;;;;4980386;28;20219;-90
2021/07/17 11:34:41;;;;;;;9.82;8.40;;;;;;;;;;4995647;28;20228;-90
2021/07/17 11:37:21;;;;;;;10.02;8.15;;;;;;;;;;4995170;28;20673;-90
2021/07/17 11:39:52;;;;;;;10.57;8.40;;;;;;;;;;4995494;28;20295;-90
2021/07/17 11:42:21;;;;;;;9.05;7.25;;;;;;;;;;4976940;28;20276;-89
2021/07/17 11:44:53;;;;;;;9.95;7.25;;;;;;;;;;4975048;28;20240;-89
2021/07/17 11:47:28;;;;;;;9.02;7.68;;;;;;;;;;4975653;28;20694;-90
2021/07/17 11:49:59;;;;;;;9.85;8.20;;;;;;;;;;4975775;28;20591;-91
2021/07/17 11:52:29;;;;;;;7.05;6.03;;;;;;;;;;4975384;28;20201;-90
2021/07/17 11:55:00;;;;;;;6.50;5.90;;;;;;;;;;4975497;28;20978;-91
2021/07/17 11:57:31;;;;;;;7.93;7.13;;;;;;;;;;4975471;28;20295;-90
2021/07/17 12:00:04;;;;;;;12.82;8.38;;;;;;;;;;4975265;28;20256;-89
2021/07/17 12:02:35;;;;;;;8.75;7.63;;;;;;;;;;4975668;28;20184;-89
2021/07/17 12:05:08;;;;;;;11.48;7.78;;;;;;;;;;4975436;28;20707;-90
2021/07/17 12:07:38;;;;;;;9.68;8.00;;;;;;;;;;4975655;28;20184;-90
2021/07/17 12:10:09;;;;;;;8.75;6.32;;;;;;;;;;4976009;28;20220;-88
2021/07/17 12:12:44;;;;;;;7.85;7.07;;;;;;;;;;4956024;29;20216;-89
2021/07/17 12:15:15;;;;;;;8.00;7.20;;;;;;;;;;4955991;28;20228;-87
2021/07/17 12:17:57;;;;;;;6.20;5.55;;;;;;;;;;4956231;29;20684;-88
2021/07/17 12:20:30;;;;;;;8.82;7.03;;;;;;;;;;4956007;29;20244;-89
2021/07/17 12:23:03;;;;;;;7.95;6.82;;;;;;;;;;4955876;29;20190;-89
2021/07/17 12:25:34;;;;;;;8.10;7.30;;;;;;;;;;4956090;28;20224;-89
2021/07/17 12:28:14;;;;;;;6.72;6.13;;;;;;;;;;4956200;29;20197;-89
2021/07/17 12:30:46;;;;;;;6.63;6.03;;;;;;;;;;4960517;28;20196;-89
2021/07/17 12:33:28;;;;;;;7.75;6.70;;;;;;;;;;4974632;28;20632;-89
2021/07/17 12:36:09;;;;;;;6.15;5.53;;;;;;;;;;4974876;28;20228;-86
2021/07/17 12:38:39;;;;;;;10.25;6.13;;;;;;;;;;4974887;28;20187;-90
2021/07/17 12:41:10;;;;;;;9.23;6.60;;;;;;;;;;4974398;28;20227;-90
2021/07/17 12:43:41;;;;;;;9.32;6.65;;;;;;;;;;4974834;28;20706;-89
2021/07/17 12:46:13;;;;;;;8.05;5.80;;;;;;;;;;4974163;28;20311;-89
2021/07/17 12:48:52;;;;;;;8.35;6.03;;;;;;;;;;4974853;28;20185;-89
2021/07/17 12:51:26;;;;;;;8.82;6.78;;;;;;;;;;4974862;28;20259;-90
2021/07/17 12:53:55;;;;;;;10.68;5.30;;;;;;;;;;4974116;28;20211;-89
2021/07/17 12:56:39;;;;;;;7.32;5.97;;;;;;;;;;4974763;28;20193;-89
2021/07/17 12:59:16;;;;;;;8.68;6.68;;;;;;;;;;4974888;28;20204;-89
2021/07/17 13:01:48;;;;;;;6.00;5.40;;;;;;;;;;4973165;28;20306;-89
2021/07/17 13:04:18;;;;;;;6.60;5.97;;;;;;;;;;4972985;28;20223;-90
2021/07/17 13:06:57;;;;;;;7.45;5.80;;;;;;;;;;4973560;28;20196;-89
2021/07/17 13:09:29;;;;;;;7.85;6.10;;;;;;;;;;4973226;28;20291;-91
2021/07/17 13:11:56;;;;;;;6.38;4.95;;;;;;;;;;4972577;28;20239;-89
2021/07/17 13:14:25;;;;;;;5.40;4.88;;;;;;;;;;4972028;28;20224;-91
2021/07/17 13:16:54;;;;;;;9.52;6.20;;;;;;;;;;4972128;28;20212;-92
2021/07/17 13:19:25;;;;;;;4.47;4.05;;;;;;;;;;4972563;28;20231;-90
2021/07/17 13:22:00;;;;;;;6.00;4.45;;;;;;;;;;4972193;28;20220;-90
2021/07/17 13:24:38;;;;;;;5.57;4.55;;;;;;;;;;4972386;28;20227;-91
2021/07/17 13:27:06;;;;;;;7.80;4.90;;;;;;;;;;4971933;28;20206;-89
2021/07/17 13:29:34;;;;;;;5.25;4.72;;;;;;;;;;4971142;28;20200;-89
2021/07/17 13:32:06;;;;;;;5.32;4.82;;;;;;;;;;4971373;28;20208;-88
2021/07/17 13:34:38;;;;;;;5.55;5.05;;;;;;;;;;4970659;28;20781;-89
2021/07/17 13:37:13;;;;;;;6.40;4.95;;;;;;;;;;4971687;28;20569;-88
2021/07/17 13:39:52;;;;;;;7.85;5.30;;;;;;;;;;4971625;28;20204;-89
2021/07/17 13:42:22;;;;;;;5.43;4.57;;;;;;;;;;4971208;28;20228;-88
2021/07/17 13:44:49;;;;;;;6.18;5.22;;;;;;;;;;4974092;28;20698;-87
2021/07/17 13:47:19;;;;;;;6.93;5.03;;;;;;;;;;4973688;28;20200;-87
2021/07/17 13:49:49;;;;;;;6.22;4.57;;;;;;;;;;4973730;28;20689;-86
2021/07/17 13:52:35;;;;;;;5.90;5.32;;;;;;;;;;4973494;28;20204;-87
2021/07/17 13:55:05;;;;;;;6.45;4.85;;;;;;;;;;4973909;28;20231;-86
2021/07/17 13:57:41;;;;;;;5.70;5.10;;;;;;;;;;4973611;28;20200;-86
2021/07/17 14:00:13;;;;;;;6.22;5.63;;;;;;;;;;4973684;28;20684;-87
2021/07/17 14:02:40;;;;;;;5.82;5.13;;;;;;;;;;4973725;28;20234;-87
2021/07/17 14:05:12;;;;;;;5.05;4.55;;;;;;;;;;4974107;28;20216;-87
2021/07/17 14:07:40;;;;;;;5.28;4.65;;;;;;;;;;4973440;28;20727;-86
2021/07/17 14:10:09;;;;;;;5.70;4.55;;;;;;;;;;4973752;28;20208;-86
2021/07/17 14:12:36;;;;;;;4.53;3.85;;;;;;;;;;4973511;28;20659;-87
2021/07/17 14:15:06;;;;;;;14.65;5.18;;;;;;;;;;4973495;28;20216;-87
2021/07/17 14:17:34;;;;;;;4.55;4.18;;;;;;;;;;4973369;28;20195;-87
2021/07/17 14:20:01;;;;;;;6.05;5.45;;;;;;;;;;4973431;28;20208;-86
2021/07/17 14:22:30;;;;;;;4.57;4.22;;;;;;;;;;4973679;28;20223;-86
2021/07/17 14:24:57;;;;;;;3.55;3.25;;;;;;;;;;4973340;28;20228;-87
2021/07/17 14:27:24;;;;;;;4.68;4.20;;;;;;;;;;4973380;28;20663;-87
2021/07/17 14:29:52;;;;;;;3.92;3.53;;;;;;;;;;4973563;28;20674;-86
2021/07/17 14:32:19;;;;;;;4.38;3.97;;;;;;;;;;4973838;28;20204;-86
2021/07/17 14:34:47;;;;;;;3.97;3.65;;;;;;;;;;4973437;28;20240;-86
2021/07/17 14:37:15;;;;;;;3.55;3.25;;;;;;;;;;4973700;28;20220;-87
2021/07/17 14:39:43;;;;;;;2.95;2.75;;;;;;;;;;4972992;28;20582;-87
2021/07/17 14:42:11;;;;;;;2.92;2.63;;;;;;;;;;4973293;28;20231;-87
2021/07/17 14:44:38;;;;;;;6.25;4.65;;;;;;;;;;4973022;28;20243;-89
2021/07/17 14:47:06;;;;;;;2.97;2.45;;;;;;;;;;4973171;28;20215;-87
2021/07/17 14:49:33;;;;;;;2.60;2.20;;;;;;;;;;4973767;28;20204;-88
2021/07/17 14:52:00;;;;;;;4.97;2.47;;;;;;;;;;4973299;28;20212;-87
2021/07/17 14:54:28;;;;;;;2.47;2.28;;;;;;;;;;4972989;28;20236;-87
2021/07/17 14:56:59;;;;;;;2.55;1.92;;;;;;;;;;4973272;28;20667;-86
2021/07/17 14:59:26;;;;;;;2.30;2.10;;;;;;;;;;4973300;28;20201;-87
2021/07/17 15:01:54;;;;;;;2.60;2.00;;;;;;;;;;4973274;28;20228;-88
2021/07/17 15:04:22;;;;;;;2.20;1.95;;;;;;;;;;4970304;28;20650;-87
2021/07/17 15:06:52;;;;;;;2.33;1.65;;;;;;;;;;4970688;28;20283;-87
2021/07/17 15:09:19;;;;;;;1.70;1.60;;;;;;;;;;4970036;28;20243;-87
2021/07/17 15:11:47;;;;;;;2.22;1.45;;;;;;;;;;4969765;28;20205;-88
2021/07/17 15:14:16;;;;;;;1.15;1.15;;;;;;;;;;4970513;28;20227;-87
2021/07/17 15:16:44;;;;;;;1.83;1.65;;;;;;;;;;4970213;28;20932;-87
2021/07/17 15:19:14;;;;;;;1.90;1.67;;;;;;;;;;4973652;28;20216;-87
2021/07/17 15:21:44;;;;;;;1.50;1.40;;;;;;;;;;4974382;28;20223;-88
2021/07/17 15:24:12;;;;;;;1.35;1.30;;;;;;;;;;4973611;28;20645;-88
2021/07/17 15:26:41;;;;;;;1.27;1.20;;;;;;;;;;4973493;28;20591;-87
2021/07/17 15:29:14;;;;;;;1.67;1.58;;;;;;;;;;4973379;28;20248;-86
2021/07/17 15:31:45;;;;;;;0.85;0.85;;;;;;;;;;4973438;28;20212;-87
2021/07/17 15:34:15;;;;;;;1.80;1.10;;;;;;;;;;4973248;28;20602;-86
2021/07/17 15:36:45;;;;;;;1.88;1.65;;;;;;;;;;4973109;28;20208;-88
2021/07/17 15:39:13;;;;;;;1.08;1.08;;;;;;;;;;4973170;28;20674;-87
2021/07/17 15:41:41;;;;;;;1.02;1.00;;;;;;;;;;4973236;28;20588;-86
2021/07/17 15:44:11;;;;;;;1.23;1.10;;;;;;;;;;4972668;28;20240;-88